Time,TemperatureF,DewpointF,PressureIn,WindDirection,WindDirectionDegrees,WindSpeedMPH,WindSpeedGustMPH,Humidity,HourlyPrecipIn,Conditions,Clouds,dailyrainin,SoftwareType,DateUTC
2013-01-15 00:00:00,57.2,56.6,30.16,SSW,201,6.0,9.0,98,0.00,,---,0.00,VWS V14.01,2013-01-15 05:00:00,
2013-01-15 00:01:00,57.2,56.6,30.16,SSW,202,6.0,9.0,98,0.00,,---,0.00,VWS V14.01,2013-01-15 05:01:00,
2013-01-15 00:02:00,57.3,56.7,30.16,SW,223,4.0,9.0,98,0.00,,---,0.00,VWS V14.01,2013-01-15 05:02:00,
2013-01-15 00:07:00,57.3,56.5,30.16,WSW,241,4.0,9.0,97,0.00,,---,0.00,VWS V14.01,2013-01-15 05:07:00,
2013-01-15 00:12:00,57.1,56.3,30.16,SW,225,4.0,9.0,97,0.00,,---,0.00,VWS V14.01,2013-01-15 05:12:00,
2013-01-15 00:17:00,56.7,55.9,30.16,SW,231,3.0,9.0,97,0.00,,---,0.00,VWS V14.01,2013-01-15 05:17:00,
2013-01-15 00:22:00,56.6,55.8,30.16,SW,228,3.0,9.0,97,0.00,,---,0.00,VWS V14.01,2013-01-15 05:22:00,
2013-01-15 00:27:00,57.0,56.4,30.16,SSW,210,4.0,9.0,98,0.00,,---,0.00,VWS V14.01,2013-01-15 05:27:00,
2013-01-15 00:32:00,57.7,57.1,30.16,SSW,206,6.0,7.0,98,0.00,,---,0.00,VWS V14.01,2013-01-15 05:32:00,
2013-01-15 00:37:00,57.7,57.1,30.16,SSW,196,5.0,7.0,98,0.00,,---,0.00,VWS V14.01,2013-01-15 05:37:00,
2013-01-15 00:42:00,57.6,56.8,30.16,SW,215,6.0,8.0,97,0.01,,---,0.01,VWS V14.01,2013-01-15 05:42:00,
2013-01-15 00:47:00,57.8,57.2,30.16,SSW,209,5.0,9.0,98,0.01,,---,0.01,VWS V14.01,2013-01-15 05:47:00,
2013-01-15 00:52:00,57.9,57.3,30.16,SW,229,5.0,9.0,98,0.01,,---,0.01,VWS V14.01,2013-01-15 05:52:00,
2013-01-15 00:57:00,58.1,57.5,30.16,SW,218,7.0,9.0,98,0.01,,---,0.01,VWS V14.01,2013-01-15 05:57:00,
2013-01-15 01:02:00,58.6,58.0,30.16,SSW,208,5.0,9.0,98,0.01,,---,0.01,VWS V14.01,2013-01-15 06:02:00,
2013-01-15 01:07:00,58.8,58.2,30.16,SW,229,6.0,9.0,98,0.01,,---,0.01,VWS V14.01,2013-01-15 06:07:00,
2013-01-15 01:12:00,58.9,58.3,30.16,West,265,1.0,9.0,98,0.01,,---,0.01,VWS V14.01,2013-01-15 06:12:00,
2013-01-15 01:17:00,58.1,57.3,30.16,SW,234,3.0,9.0,97,0.01,,---,0.01,VWS V14.01,2013-01-15 06:17:00,
2013-01-15 01:22:00,58.1,57.5,30.16,SW,229,5.0,9.0,98,0.01,,---,0.01,VWS V14.01,2013-01-15 06:22:00,
2013-01-15 01:27:00,58.6,58.0,30.16,SW,221,4.0,9.0,98,0.01,,---,0.01,VWS V14.01,2013-01-15 06:27:00,
2013-01-15 01:32:00,58.7,58.1,30.16,WSW,249,3.0,7.0,98,0.01,,---,0.01,VWS V14.01,2013-01-15 06:32:00,
2013-01-15 01:37:00,58.6,58.0,30.16,WSW,238,3.0,7.0,98,0.01,,---,0.01,VWS V14.01,2013-01-15 06:37:00,
2013-01-15 01:42:00,58.7,58.1,30.16,SW,227,4.0,7.0,98,0.01,,---,0.01,VWS V14.01,2013-01-15 06:42:00,
2013-01-15 01:47:00,58.7,58.1,30.16,WSW,249,2.0,7.0,98,0.01,,---,0.01,VWS V14.01,2013-01-15 06:47:00,
2013-01-15 01:52:00,58.5,57.9,30.16,SW,223,3.0,7.0,98,0.01,,---,0.01,VWS V14.01,2013-01-15 06:52:00,
2013-01-15 01:58:00,58.4,57.8,30.16,SW,234,3.0,7.0,98,0.01,,---,0.01,VWS V14.01,2013-01-15 06:58:00,
2013-01-15 02:03:00,58.3,57.7,30.16,SW,214,3.0,4.0,98,0.00,,---,0.01,VWS V14.01,2013-01-15 07:03:00,
2013-01-15 02:08:00,57.9,57.1,30.16,SSW,213,4.0,6.0,97,0.00,,---,0.01,VWS V14.01,2013-01-15 07:08:00,
2013-01-15 02:13:00,57.6,56.8,30.16,SSW,213,5.0,6.0,97,0.00,,---,0.01,VWS V14.01,2013-01-15 07:13:00,
2013-01-15 02:18:00,57.6,57.0,30.15,SSW,207,4.0,6.0,98,0.00,,---,0.01,VWS V14.01,2013-01-15 07:18:00,
2013-01-15 02:23:00,57.6,57.0,30.15,SSW,209,6.0,6.0,98,0.00,,---,0.01,VWS V14.01,2013-01-15 07:23:00,
2013-01-15 02:28:00,57.3,56.5,30.15,SSW,205,5.0,6.0,97,0.00,,---,0.01,VWS V14.01,2013-01-15 07:28:00,
2013-01-15 02:33:00,57.2,56.6,30.15,SSW,196,9.0,9.0,98,0.00,,---,0.01,VWS V14.01,2013-01-15 07:33:00,
2013-01-15 02:38:00,57.0,56.4,30.15,SSW,196,5.0,9.0,98,0.00,,---,0.01,VWS V14.01,2013-01-15 07:38:00,
2013-01-15 02:43:00,57.0,56.4,30.15,SSW,213,5.0,9.0,98,0.00,,---,0.01,VWS V14.01,2013-01-15 07:43:00,
2013-01-15 02:48:00,57.2,56.6,30.15,SSW,210,6.0,9.0,98,0.00,,---,0.01,VWS V14.01,2013-01-15 07:48:00,
2013-01-15 02:53:00,57.5,56.9,30.14,SSW,207,6.0,9.0,98,0.00,,---,0.01,VWS V14.01,2013-01-15 07:53:00,
2013-01-15 02:58:00,57.7,57.1,30.14,WSW,254,1.0,3.0,98,0.00,,---,0.01,VWS V14.01,2013-01-15 07:58:00,
2013-01-15 03:03:00,57.4,56.6,30.14,WSW,240,2.0,3.0,97,0.00,,---,0.01,VWS V14.01,2013-01-15 08:03:00,
2013-01-15 03:08:00,57.3,56.7,30.14,SW,236,2.0,4.0,98,0.00,,---,0.01,VWS V14.01,2013-01-15 08:08:00,
2013-01-15 03:13:00,56.8,56.0,30.14,SW,236,0.0,4.0,97,0.00,,---,0.01,VWS V14.01,2013-01-15 08:13:00,
2013-01-15 03:19:00,56.0,55.2,30.14,SW,236,0.0,4.0,97,0.00,,---,0.01,VWS V14.01,2013-01-15 08:19:00,
2013-01-15 03:24:00,55.6,54.8,30.14,SW,236,0.0,4.0,97,0.00,,---,0.01,VWS V14.01,2013-01-15 08:24:00,
2013-01-15 03:29:00,55.5,54.7,30.14,SW,236,0.0,0.0,97,0.00,,---,0.01,VWS V14.01,2013-01-15 08:29:00,
2013-01-15 03:34:00,55.4,54.8,30.14,SW,236,0.0,0.0,98,0.00,,---,0.01,VWS V14.01,2013-01-15 08:34:00,
2013-01-15 03:39:00,55.4,54.8,30.13,SW,236,0.0,1.0,98,0.00,,---,0.01,VWS V14.01,2013-01-15 08:39:00,
2013-01-15 03:44:00,55.4,54.8,30.13,SW,236,0.0,2.0,98,0.00,,---,0.01,VWS V14.01,2013-01-15 08:44:00,
2013-01-15 03:49:00,55.5,55.0,30.13,SW,236,3.0,3.0,98,0.00,,---,0.01,VWS V14.01,2013-01-15 08:49:00,
2013-01-15 03:54:00,55.6,55.0,30.13,SW,236,3.0,3.0,98,0.00,,---,0.01,VWS V14.01,2013-01-15 08:54:00,
2013-01-15 03:59:00,55.7,55.2,30.13,SW,236,3.0,3.0,98,0.00,,---,0.01,VWS V14.01,2013-01-15 08:59:00,
2013-01-15 04:04:00,55.9,55.3,30.13,SSW,195,4.0,6.0,98,0.00,,---,0.01,VWS V14.01,2013-01-15 09:04:00,
2013-01-15 04:09:00,56.1,55.5,30.13,SSW,192,5.0,6.0,98,0.00,,---,0.01,VWS V14.01,2013-01-15 09:09:00,
2013-01-15 04:14:00,56.2,55.7,30.13,SSW,196,5.0,6.0,98,0.00,,---,0.01,VWS V14.01,2013-01-15 09:14:00,
2013-01-15 04:19:00,56.4,55.8,30.12,SSW,205,5.0,6.0,98,0.00,,---,0.01,VWS V14.01,2013-01-15 09:19:00,
2013-01-15 04:24:00,56.6,56.0,30.12,SSW,201,4.0,7.0,98,0.00,,---,0.01,VWS V14.01,2013-01-15 09:24:00,
2013-01-15 04:29:00,56.9,56.3,30.12,South,191,5.0,6.0,98,0.00,,---,0.01,VWS V14.01,2013-01-15 09:29:00,
2013-01-15 04:34:00,57.2,56.6,30.12,SSW,201,4.0,6.0,98,0.00,,---,0.01,VWS V14.01,2013-01-15 09:34:00,
2013-01-15 04:39:00,57.6,57.0,30.12,SSW,207,4.0,6.0,98,0.00,,---,0.01,VWS V14.01,2013-01-15 09:39:00,
2013-01-15 04:44:00,57.8,57.2,30.12,SSW,209,3.0,6.0,98,0.00,,---,0.01,VWS V14.01,2013-01-15 09:44:00,
2013-01-15 04:49:00,57.9,57.3,30.12,SW,217,3.0,6.0,98,0.00,,---,0.01,VWS V14.01,2013-01-15 09:49:00,
2013-01-15 04:54:00,58.2,57.6,30.11,SSW,208,5.0,7.0,98,0.00,,---,0.01,VWS V14.01,2013-01-15 09:54:00,
2013-01-15 04:59:00,58.5,57.9,30.11,SSW,210,7.0,7.0,98,0.00,,---,0.01,VWS V14.01,2013-01-15 09:59:00,
2013-01-15 05:04:00,58.2,57.6,30.11,SSW,202,5.0,9.0,98,0.00,,---,0.01,VWS V14.01,2013-01-15 10:04:00,
2013-01-15 05:09:00,58.3,57.7,30.11,SSW,201,6.0,9.0,98,0.00,,---,0.01,VWS V14.01,2013-01-15 10:09:00,
2013-01-15 05:14:00,58.7,58.1,30.11,SSW,207,5.0,9.0,98,0.00,,---,0.01,VWS V14.01,2013-01-15 10:14:00,
2013-01-15 05:19:00,58.6,58.0,30.11,SSW,213,6.0,9.0,98,0.00,,---,0.01,VWS V14.01,2013-01-15 10:19:00,
2013-01-15 05:24:00,58.9,58.3,30.11,SW,214,5.0,9.0,98,0.00,,---,0.01,VWS V14.01,2013-01-15 10:24:00,
2013-01-15 05:29:00,59.2,58.6,30.11,SSW,204,5.0,6.0,98,0.00,,---,0.01,VWS V14.01,2013-01-15 10:29:00,
2013-01-15 05:34:00,59.2,58.6,30.12,SW,220,2.0,7.0,98,0.00,,---,0.01,VWS V14.01,2013-01-15 10:34:00,
2013-01-15 05:39:00,58.7,58.1,30.11,SW,225,4.0,7.0,98,0.00,,---,0.01,VWS V14.01,2013-01-15 10:39:00,
2013-01-15 05:44:00,58.6,58.0,30.11,SSW,193,4.0,7.0,98,0.00,,---,0.01,VWS V14.01,2013-01-15 10:44:00,
2013-01-15 05:49:00,58.4,57.8,30.11,SSW,200,6.0,11.0,98,0.00,,---,0.01,VWS V14.01,2013-01-15 10:49:00,
2013-01-15 05:54:00,58.4,57.8,30.11,SSW,196,11.0,11.0,98,0.00,,---,0.01,VWS V14.01,2013-01-15 10:54:00,
2013-01-15 05:59:00,58.7,58.1,30.11,SW,221,7.0,10.0,98,0.00,,---,0.01,VWS V14.01,2013-01-15 10:59:00,
2013-01-15 06:07:00,59.0,58.4,30.11,SSW,213,4.0,11.0,98,0.00,,---,0.01,VWS V14.01,2013-01-15 11:07:00,
2013-01-15 06:20:00,57.7,57.1,30.11,WNW,285,4.0,11.0,98,0.00,,---,0.01,VWS V14.01,2013-01-15 11:20:00,
2013-01-15 06:25:00,57.1,56.5,30.11,SW,225,1.0,11.0,98,0.00,,---,0.01,VWS V14.01,2013-01-15 11:25:00,
2013-01-15 06:30:00,56.8,56.2,30.11,West,272,5.0,5.0,98,0.00,,---,0.01,VWS V14.01,2013-01-15 11:30:00,
2013-01-15 06:35:00,56.0,55.2,30.12,WNW,287,3.0,5.0,97,0.00,,---,0.01,VWS V14.01,2013-01-15 11:35:00,
2013-01-15 06:40:00,55.5,54.7,30.12,WNW,287,1.0,5.0,97,0.00,,---,0.01,VWS V14.01,2013-01-15 11:40:00,
2013-01-15 06:45:00,55.1,54.3,30.12,WNW,287,1.0,5.0,97,0.00,,---,0.01,VWS V14.01,2013-01-15 11:45:00,
2013-01-15 06:50:00,54.9,54.1,30.12,WNW,287,1.0,5.0,97,0.00,,---,0.01,VWS V14.01,2013-01-15 11:50:00,
2013-01-15 06:55:00,54.8,54.2,30.12,WNW,287,1.0,5.0,98,0.00,,---,0.01,VWS V14.01,2013-01-15 11:55:00,
2013-01-15 07:00:00,54.8,54.2,30.12,WNW,287,1.0,2.0,98,0.00,,---,0.01,VWS V14.01,2013-01-15 12:00:00,
2013-01-15 07:05:00,54.7,54.2,30.12,WNW,287,1.0,2.0,98,0.00,,---,0.01,VWS V14.01,2013-01-15 12:05:00,
2013-01-15 07:10:00,54.8,54.2,30.12,WNW,287,0.0,2.0,98,0.00,,---,0.01,VWS V14.01,2013-01-15 12:10:00,
2013-01-15 07:15:00,55.0,54.5,30.12,WNW,287,1.0,2.0,98,0.00,,---,0.01,VWS V14.01,2013-01-15 12:15:00,
2013-01-15 07:20:00,55.1,54.5,30.12,West,265,2.0,2.0,98,0.00,,---,0.01,VWS V14.01,2013-01-15 12:20:00,
2013-01-15 07:25:00,55.3,54.8,30.12,West,265,0.0,2.0,98,0.00,,---,0.01,VWS V14.01,2013-01-15 12:25:00,
2013-01-15 07:30:00,55.4,54.8,30.13,West,265,0.0,0.0,98,0.00,,---,0.01,VWS V14.01,2013-01-15 12:30:00,
2013-01-15 07:35:00,55.4,54.8,30.13,West,265,2.0,2.0,98,0.00,,---,0.01,VWS V14.01,2013-01-15 12:35:00,
2013-01-15 07:40:00,55.7,55.2,30.13,WSW,253,3.0,4.0,98,0.00,,---,0.01,VWS V14.01,2013-01-15 12:40:00,
2013-01-15 07:45:00,56.4,56.1,30.13,SW,219,5.0,5.0,99,0.00,,---,0.01,VWS V14.01,2013-01-15 12:45:00,
2013-01-15 07:50:00,56.5,56.2,30.14,SSW,203,4.0,5.0,99,0.00,,---,0.01,VWS V14.01,2013-01-15 12:50:00,
2013-01-15 07:55:00,56.4,55.8,30.14,SSW,193,5.0,7.0,98,0.00,,---,0.01,VWS V14.01,2013-01-15 12:55:00,
2013-01-15 08:00:00,56.4,55.8,30.14,South,187,5.0,6.0,98,0.00,,---,0.01,VWS V14.01,2013-01-15 13:00:00,
2013-01-15 08:05:00,56.4,55.8,30.14,South,188,5.0,6.0,98,0.00,,---,0.01,VWS V14.01,2013-01-15 13:05:00,
2013-01-15 08:10:00,56.3,55.8,30.15,SSW,195,7.0,7.0,98,0.00,,---,0.01,VWS V14.01,2013-01-15 13:10:00,
2013-01-15 08:15:00,56.4,55.8,30.15,South,190,4.0,8.0,98,0.00,,---,0.01,VWS V14.01,2013-01-15 13:15:00,
2013-01-15 08:21:00,56.6,56.0,30.15,SSW,198,3.0,8.0,98,0.00,,---,0.01,VWS V14.01,2013-01-15 13:21:00,
2013-01-15 08:26:00,56.9,56.6,30.15,SSW,206,1.0,8.0,99,0.00,,---,0.01,VWS V14.01,2013-01-15 13:26:00,
2013-01-15 08:31:00,57.1,56.5,30.16,SSW,206,2.0,2.0,98,0.00,,---,0.01,VWS V14.01,2013-01-15 13:31:00,
2013-01-15 08:36:00,57.2,56.6,30.16,SSW,206,1.0,3.0,98,0.00,,---,0.01,VWS V14.01,2013-01-15 13:36:00,
2013-01-15 08:41:00,57.4,57.1,30.16,SSW,213,4.0,4.0,99,0.00,,---,0.01,VWS V14.01,2013-01-15 13:41:00,
2013-01-15 08:46:00,57.7,57.4,30.16,SW,215,5.0,5.0,99,0.00,,---,0.01,VWS V14.01,2013-01-15 13:46:00,
2013-01-15 08:51:00,57.6,57.0,30.16,SSW,210,4.0,6.0,98,0.00,,---,0.01,VWS V14.01,2013-01-15 13:51:00,
2013-01-15 08:56:00,57.7,57.1,30.16,SW,214,0.0,6.0,98,0.00,,---,0.01,VWS V14.01,2013-01-15 13:56:00,
2013-01-15 09:01:00,58.0,57.7,30.16,SW,226,0.0,2.0,99,0.00,,---,0.01,VWS V14.01,2013-01-15 14:01:00,
2013-01-15 09:06:00,57.8,57.2,30.16,SW,226,0.0,2.0,98,0.00,,---,0.01,VWS V14.01,2013-01-15 14:06:00,
2013-01-15 09:11:00,58.0,57.7,30.16,SW,226,2.0,2.0,99,0.00,,---,0.01,VWS V14.01,2013-01-15 14:11:00,
2013-01-15 09:16:00,58.0,57.7,30.17,SW,226,2.0,3.0,99,0.00,,---,0.01,VWS V14.01,2013-01-15 14:16:00,
2013-01-15 09:21:00,58.2,57.9,30.17,WSW,244,0.0,3.0,99,0.00,,---,0.01,VWS V14.01,2013-01-15 14:21:00,
2013-01-15 09:26:00,58.4,58.1,30.17,WSW,244,0.0,3.0,99,0.00,,---,0.01,VWS V14.01,2013-01-15 14:26:00,
2013-01-15 09:31:00,58.7,58.4,30.17,WSW,244,0.0,1.0,99,0.00,,---,0.01,VWS V14.01,2013-01-15 14:31:00,
2013-01-15 09:36:00,59.2,58.9,30.17,WSW,244,0.0,1.0,99,0.00,,---,0.01,VWS V14.01,2013-01-15 14:36:00,
2013-01-15 09:41:00,59.6,59.3,30.17,SSE,161,3.0,4.0,99,0.00,,---,0.01,VWS V14.01,2013-01-15 14:41:00,
2013-01-15 09:46:00,59.6,59.3,30.17,SE,128,4.0,4.0,99,0.00,,---,0.01,VWS V14.01,2013-01-15 14:46:00,
2013-01-15 09:51:00,59.4,59.1,30.17,ESE,108,3.0,4.0,99,0.00,,---,0.01,VWS V14.01,2013-01-15 14:51:00,
2013-01-15 09:57:00,59.5,59.2,30.17,ESE,108,2.0,5.0,99,0.00,,---,0.01,VWS V14.01,2013-01-15 14:57:00,
2013-01-15 10:02:00,59.6,59.3,30.17,ESE,117,3.0,5.0,99,0.00,,---,0.01,VWS V14.01,2013-01-15 15:02:00,
2013-01-15 10:07:00,59.3,59.0,30.17,ESE,117,4.0,5.0,99,0.00,,---,0.01,VWS V14.01,2013-01-15 15:07:00,
2013-01-15 10:12:00,59.7,59.4,30.17,ESE,117,2.0,5.0,99,0.00,,---,0.01,VWS V14.01,2013-01-15 15:12:00,
2013-01-15 10:17:00,59.4,59.1,30.17,ESE,112,4.0,6.0,99,0.00,,---,0.01,VWS V14.01,2013-01-15 15:17:00,
2013-01-15 10:22:00,59.5,59.2,30.17,SE,137,6.0,6.0,99,0.00,,---,0.01,VWS V14.01,2013-01-15 15:22:00,
2013-01-15 10:27:00,59.0,58.4,30.17,SE,131,6.0,11.0,98,0.00,,---,0.01,VWS V14.01,2013-01-15 15:27:00,
2013-01-15 10:32:00,58.4,57.8,30.17,ESE,123,4.0,11.0,98,0.00,,---,0.01,VWS V14.01,2013-01-15 15:32:00,
2013-01-15 10:37:00,58.3,57.7,30.17,ESE,110,6.0,11.0,98,0.00,,---,0.01,VWS V14.01,2013-01-15 15:37:00,
2013-01-15 10:42:00,58.4,57.8,30.16,ESE,117,5.0,11.0,98,0.00,,---,0.01,VWS V14.01,2013-01-15 15:42:00,
2013-01-15 10:47:00,58.0,57.4,30.16,ESE,109,7.0,11.0,98,0.00,,---,0.01,VWS V14.01,2013-01-15 15:47:00,
2013-01-15 10:52:00,58.0,57.7,30.16,SE,128,5.0,11.0,99,0.00,,---,0.01,VWS V14.01,2013-01-15 15:52:00,
2013-01-15 10:57:00,58.1,57.8,30.15,ESE,118,7.0,11.0,99,0.00,,---,0.01,VWS V14.01,2013-01-15 15:57:00,
2013-01-15 11:02:00,57.9,57.3,30.15,SE,132,6.0,11.0,98,0.00,,---,0.01,VWS V14.01,2013-01-15 16:02:00,
2013-01-15 11:07:00,57.9,57.6,30.15,ESE,107,6.0,11.0,99,0.00,,---,0.01,VWS V14.01,2013-01-15 16:07:00,
2013-01-15 11:12:00,58.0,57.7,30.15,SE,124,6.0,11.0,99,0.00,,---,0.01,VWS V14.01,2013-01-15 16:12:00,
2013-01-15 11:17:00,57.9,57.6,30.15,SE,132,5.0,11.0,99,0.00,,---,0.01,VWS V14.01,2013-01-15 16:17:00,
2013-01-15 11:22:00,57.3,56.7,30.15,East,94,5.0,11.0,98,0.00,,---,0.01,VWS V14.01,2013-01-15 16:22:00,
2013-01-15 11:27:00,57.3,56.7,30.15,East,101,7.0,11.0,98,0.00,,---,0.01,VWS V14.01,2013-01-15 16:27:00,
2013-01-15 11:32:00,57.8,57.5,30.15,ESE,117,9.0,11.0,99,0.00,,---,0.01,VWS V14.01,2013-01-15 16:32:00,
2013-01-15 11:37:00,57.6,57.3,30.15,ENE,73,5.0,11.0,99,0.00,,---,0.01,VWS V14.01,2013-01-15 16:37:00,
2013-01-15 11:42:00,57.7,57.4,30.15,East,98,6.0,12.0,99,0.00,,---,0.01,VWS V14.01,2013-01-15 16:42:00,
2013-01-15 11:47:00,57.8,57.5,30.15,ESE,102,11.0,12.0,99,0.00,,---,0.01,VWS V14.01,2013-01-15 16:47:00,
2013-01-15 11:52:00,57.5,57.2,30.15,East,89,5.0,12.0,99,0.00,,---,0.01,VWS V14.01,2013-01-15 16:52:00,
2013-01-15 11:57:00,56.9,56.3,30.15,East,100,9.0,12.0,98,0.00,,---,0.01,VWS V14.01,2013-01-15 16:57:00,
2013-01-15 12:02:00,56.7,56.1,30.14,ESE,108,8.0,13.0,98,0.00,,---,0.01,VWS V14.01,2013-01-15 17:02:00,
2013-01-15 12:07:00,56.4,55.8,30.14,ESE,109,6.0,13.0,98,0.00,,---,0.01,VWS V14.01,2013-01-15 17:07:00,
2013-01-15 12:12:00,56.0,55.5,30.14,ESE,118,10.0,13.0,98,0.00,,---,0.01,VWS V14.01,2013-01-15 17:12:00,
2013-01-15 12:17:00,55.8,55.2,30.14,ESE,115,10.0,13.0,98,0.00,,---,0.01,VWS V14.01,2013-01-15 17:17:00,
2013-01-15 12:22:00,55.8,55.2,30.14,ESE,102,10.0,14.0,98,0.00,,---,0.01,VWS V14.01,2013-01-15 17:22:00,
2013-01-15 12:27:00,55.7,55.4,30.14,ENE,57,7.0,14.0,99,0.00,,---,0.01,VWS V14.01,2013-01-15 17:27:00,
2013-01-15 12:32:00,55.7,55.2,30.14,ESE,105,7.0,13.0,98,0.00,,---,0.01,VWS V14.01,2013-01-15 17:32:00,
2013-01-15 12:37:00,55.8,55.2,30.13,East,84,11.0,14.0,98,0.00,,---,0.01,VWS V14.01,2013-01-15 17:37:00,
2013-01-15 12:42:00,55.8,55.2,30.12,ESE,109,11.0,14.0,98,0.00,,---,0.01,VWS V14.01,2013-01-15 17:42:00,
2013-01-15 12:47:00,55.7,55.2,30.12,East,81,10.0,14.0,98,0.00,,---,0.01,VWS V14.01,2013-01-15 17:47:00,
2013-01-15 12:52:00,55.5,55.0,30.12,East,95,7.0,14.0,98,0.00,,---,0.01,VWS V14.01,2013-01-15 17:52:00,
2013-01-15 12:57:00,55.5,55.2,30.12,East,84,9.0,14.0,99,0.00,,---,0.01,VWS V14.01,2013-01-15 17:57:00,
2013-01-15 13:02:00,55.5,55.2,30.12,East,95,9.0,11.0,99,0.00,,---,0.01,VWS V14.01,2013-01-15 18:02:00,
2013-01-15 13:07:00,55.4,54.8,30.12,ESE,123,8.0,12.0,98,0.00,,---,0.01,VWS V14.01,2013-01-15 18:07:00,
2013-01-15 13:12:00,55.5,55.2,30.12,ESE,107,13.0,14.0,99,0.00,,---,0.01,VWS V14.01,2013-01-15 18:12:00,
2013-01-15 13:17:00,55.5,55.2,30.12,ESE,102,8.0,14.0,99,0.00,,---,0.01,VWS V14.01,2013-01-15 18:17:00,
2013-01-15 13:22:00,55.4,55.1,30.11,ESE,103,9.0,14.0,99,0.00,,---,0.01,VWS V14.01,2013-01-15 18:22:00,
2013-01-15 13:27:00,55.4,54.8,30.11,ESE,102,9.0,14.0,98,0.00,,---,0.01,VWS V14.01,2013-01-15 18:27:00,
2013-01-15 13:32:00,55.5,55.2,30.12,ESE,107,8.0,13.0,99,0.00,,---,0.01,VWS V14.01,2013-01-15 18:32:00,
2013-01-15 13:37:00,55.3,54.8,30.11,East,99,9.0,13.0,98,0.00,,---,0.01,VWS V14.01,2013-01-15 18:37:00,
2013-01-15 13:42:00,55.4,54.8,30.11,ESE,114,6.0,13.0,98,0.00,,---,0.01,VWS V14.01,2013-01-15 18:42:00,
2013-01-15 13:47:00,55.6,55.3,30.11,SE,127,8.0,13.0,99,0.00,,---,0.01,VWS V14.01,2013-01-15 18:47:00,
2013-01-15 13:52:00,55.7,55.4,30.11,ESE,103,11.0,13.0,99,0.00,,---,0.01,VWS V14.01,2013-01-15 18:52:00,
2013-01-15 13:57:00,55.6,55.3,30.11,ESE,109,12.0,13.0,99,0.00,,---,0.01,VWS V14.01,2013-01-15 18:57:00,
2013-01-15 14:02:00,55.5,55.2,30.11,East,101,9.0,13.0,99,0.00,,---,0.01,VWS V14.01,2013-01-15 19:02:00,
2013-01-15 14:07:00,55.5,55.2,30.11,ESE,111,13.0,14.0,99,0.00,,---,0.01,VWS V14.01,2013-01-15 19:07:00,
2013-01-15 14:12:00,55.5,55.2,30.11,ESE,108,5.0,15.0,99,0.00,,---,0.01,VWS V14.01,2013-01-15 19:12:00,
2013-01-15 14:17:00,55.4,54.8,30.12,East,96,6.0,15.0,98,0.00,,---,0.01,VWS V14.01,2013-01-15 19:17:00,
2013-01-15 14:22:00,55.5,55.2,30.12,ESE,105,10.0,15.0,99,0.00,,---,0.01,VWS V14.01,2013-01-15 19:22:00,
2013-01-15 14:27:00,55.6,55.3,30.11,East,95,9.0,15.0,99,0.00,,---,0.01,VWS V14.01,2013-01-15 19:27:00,
2013-01-15 14:32:00,55.7,55.4,30.11,East,101,9.0,12.0,99,0.00,,---,0.01,VWS V14.01,2013-01-15 19:32:00,
2013-01-15 14:37:00,55.6,55.3,30.11,ESE,109,9.0,12.0,99,0.00,,---,0.01,VWS V14.01,2013-01-15 19:37:00,
2013-01-15 14:42:00,55.4,55.1,30.11,ESE,120,6.0,13.0,99,0.00,,---,0.01,VWS V14.01,2013-01-15 19:42:00,
2013-01-15 14:47:00,55.4,54.8,30.12,East,81,9.0,13.0,98,0.00,,---,0.01,VWS V14.01,2013-01-15 19:47:00,
2013-01-15 14:52:00,55.5,55.2,30.12,East,86,5.0,13.0,99,0.00,,---,0.01,VWS V14.01,2013-01-15 19:52:00,
2013-01-15 14:58:00,55.6,55.3,30.12,ESE,111,9.0,13.0,99,0.00,,---,0.01,VWS V14.01,2013-01-15 19:58:00,
2013-01-15 15:03:00,55.7,55.4,30.12,East,99,9.0,11.0,99,0.00,,---,0.01,VWS V14.01,2013-01-15 20:03:00,
2013-01-15 15:08:00,55.6,55.3,30.11,ESE,111,9.0,12.0,99,0.00,,---,0.01,VWS V14.01,2013-01-15 20:08:00,
2013-01-15 15:13:00,55.6,55.3,30.11,ESE,111,11.0,12.0,99,0.00,,---,0.01,VWS V14.01,2013-01-15 20:13:00,
2013-01-15 15:18:00,55.7,55.4,30.11,ESE,114,5.0,14.0,99,0.00,,---,0.01,VWS V14.01,2013-01-15 20:18:00,
2013-01-15 15:23:00,55.7,55.4,30.11,ENE,69,6.0,14.0,99,0.00,,---,0.01,VWS V14.01,2013-01-15 20:23:00,
2013-01-15 15:28:00,55.8,55.5,30.11,East,96,12.0,14.0,99,0.00,,---,0.01,VWS V14.01,2013-01-15 20:28:00,
2013-01-15 15:33:00,55.9,55.6,30.11,ESE,119,7.0,12.0,99,0.00,,---,0.01,VWS V14.01,2013-01-15 20:33:00,
2013-01-15 15:38:00,55.9,55.6,30.11,East,101,7.0,12.0,99,0.00,,---,0.01,VWS V14.01,2013-01-15 20:38:00,
2013-01-15 15:43:00,55.9,55.6,30.11,ESE,107,4.0,12.0,99,0.00,,---,0.01,VWS V14.01,2013-01-15 20:43:00,
2013-01-15 15:48:00,56.0,55.7,30.11,ESE,116,7.0,12.0,99,0.00,,---,0.01,VWS V14.01,2013-01-15 20:48:00,
2013-01-15 15:53:00,56.0,55.7,30.11,East,94,5.0,12.0,99,0.00,,---,0.01,VWS V14.01,2013-01-15 20:53:00,
2013-01-15 15:58:00,56.0,55.7,30.12,East,97,4.0,5.0,99,0.00,,---,0.01,VWS V14.01,2013-01-15 20:58:00,
2013-01-15 16:03:00,56.0,55.5,30.12,East,97,7.0,10.0,98,0.00,,---,0.01,VWS V14.01,2013-01-15 21:03:00,
2013-01-15 16:08:00,56.0,55.7,30.12,ENE,65,8.0,11.0,99,0.00,,---,0.01,VWS V14.01,2013-01-15 21:08:00,
2013-01-15 16:13:00,56.2,55.9,30.11,East,84,9.0,14.0,99,0.00,,---,0.01,VWS V14.01,2013-01-15 21:13:00,
2013-01-15 16:18:00,56.0,55.5,30.12,ENE,75,7.0,14.0,98,0.00,,---,0.01,VWS V14.01,2013-01-15 21:18:00,
2013-01-15 16:23:00,55.9,55.3,30.12,ENE,76,10.0,14.0,98,0.00,,---,0.01,VWS V14.01,2013-01-15 21:23:00,
2013-01-15 16:28:00,55.9,55.3,30.12,ESE,104,4.0,7.0,98,0.00,,---,0.01,VWS V14.01,2013-01-15 21:28:00,
2013-01-15 16:33:00,55.9,55.6,30.13,ENE,73,6.0,9.0,99,0.00,,---,0.01,VWS V14.01,2013-01-15 21:33:00,
2013-01-15 16:38:00,55.9,55.6,30.13,East,97,7.0,9.0,99,0.00,,---,0.01,VWS V14.01,2013-01-15 21:38:00,
2013-01-15 16:44:00,56.0,55.7,30.13,East,90,9.0,9.0,99,0.00,,---,0.01,VWS V14.01,2013-01-15 21:44:00,
2013-01-15 16:49:00,56.1,55.8,30.13,ENE,78,10.0,11.0,99,0.00,,---,0.01,VWS V14.01,2013-01-15 21:49:00,
2013-01-15 16:54:00,56.3,56.0,30.12,East,98,6.0,12.0,99,0.00,,---,0.01,VWS V14.01,2013-01-15 21:54:00,
2013-01-15 16:59:00,56.5,56.2,30.13,East,94,7.0,11.0,99,0.00,,---,0.01,VWS V14.01,2013-01-15 21:59:00,
2013-01-15 17:04:00,56.6,56.3,30.12,East,86,9.0,13.0,99,0.00,,---,0.01,VWS V14.01,2013-01-15 22:04:00,
2013-01-15 17:09:00,56.7,56.4,30.12,East,92,9.0,13.0,99,0.00,,---,0.01,VWS V14.01,2013-01-15 22:09:00,
2013-01-15 17:14:00,56.5,56.2,30.12,East,91,9.0,14.0,99,0.00,,---,0.01,VWS V14.01,2013-01-15 22:14:00,
2013-01-15 17:19:00,56.3,56.0,30.12,East,83,5.0,14.0,99,0.00,,---,0.01,VWS V14.01,2013-01-15 22:19:00,
2013-01-15 17:24:00,56.3,56.0,30.12,ENE,75,10.0,16.0,99,0.00,,---,0.01,VWS V14.01,2013-01-15 22:24:00,
2013-01-15 17:29:00,56.2,55.9,30.12,ESE,109,9.0,10.0,99,0.00,,---,0.01,VWS V14.01,2013-01-15 22:29:00,
2013-01-15 17:34:00,56.0,55.5,30.12,ESE,113,11.0,16.0,98,0.00,,---,0.01,VWS V14.01,2013-01-15 22:34:00,
2013-01-15 17:39:00,56.1,55.8,30.12,ENE,76,7.0,16.0,99,0.00,,---,0.01,VWS V14.01,2013-01-15 22:39:00,
2013-01-15 17:44:00,56.2,55.9,30.12,ENE,76,11.0,18.0,99,0.00,,---,0.01,VWS V14.01,2013-01-15 22:44:00,
2013-01-15 17:49:00,56.2,55.9,30.12,East,94,9.0,18.0,99,0.00,,---,0.01,VWS V14.01,2013-01-15 22:49:00,
2013-01-15 17:54:00,56.2,55.9,30.13,ESE,113,12.0,18.0,99,0.00,,---,0.01,VWS V14.01,2013-01-15 22:54:00,
2013-01-15 17:59:00,56.2,55.9,30.13,ESE,113,12.0,13.0,99,0.00,,---,0.01,VWS V14.01,2013-01-15 22:59:00,
2013-01-15 18:04:00,56.2,55.9,30.13,ESE,106,11.0,14.0,99,0.00,,---,0.01,VWS V14.01,2013-01-15 23:04:00,
2013-01-15 18:09:00,56.1,55.8,30.13,ESE,112,11.0,15.0,99,0.00,,---,0.01,VWS V14.01,2013-01-15 23:09:00,
2013-01-15 18:14:00,56.1,55.8,30.13,ESE,117,13.0,16.0,99,0.00,,---,0.01,VWS V14.01,2013-01-15 23:14:00,
2013-01-15 18:19:00,56.0,55.7,30.13,East,100,13.0,17.0,99,0.00,,---,0.01,VWS V14.01,2013-01-15 23:19:00,
2013-01-15 18:24:00,55.8,55.5,30.13,ESE,123,17.0,18.0,99,0.00,,---,0.01,VWS V14.01,2013-01-15 23:24:00,
2013-01-15 18:29:00,55.7,55.4,30.14,ESE,114,14.0,18.0,99,0.00,,---,0.01,VWS V14.01,2013-01-15 23:29:00,
2013-01-15 18:34:00,55.6,55.3,30.14,East,100,10.0,18.0,99,0.00,,---,0.01,VWS V14.01,2013-01-15 23:34:00,
2013-01-15 18:39:00,55.5,55.2,30.14,East,80,12.0,18.0,99,0.00,,---,0.01,VWS V14.01,2013-01-15 23:39:00,
2013-01-15 18:44:00,55.5,55.2,30.14,East,101,13.0,19.0,99,0.00,,---,0.01,VWS V14.01,2013-01-15 23:44:00,
2013-01-15 18:50:00,55.4,55.1,30.14,ESE,107,12.0,19.0,99,0.00,,---,0.01,VWS V14.01,2013-01-15 23:50:00,
2013-01-15 18:55:00,55.4,55.1,30.14,ESE,110,9.0,19.0,99,0.00,,---,0.01,VWS V14.01,2013-01-15 23:55:00,
2013-01-15 19:00:00,55.3,55.0,30.14,ESE,115,8.0,16.0,99,0.00,,---,0.01,VWS V14.01,2013-01-16 00:00:00,
2013-01-15 19:05:00,55.2,54.9,30.14,ESE,121,9.0,17.0,99,0.00,,---,0.01,VWS V14.01,2013-01-16 00:05:00,
2013-01-15 19:10:00,55.2,54.9,30.14,ESE,112,9.0,19.0,99,0.00,,---,0.01,VWS V14.01,2013-01-16 00:10:00,
2013-01-15 19:15:00,55.1,54.8,30.14,ESE,111,17.0,20.0,99,0.00,,---,0.01,VWS V14.01,2013-01-16 00:15:00,
2013-01-15 19:20:00,55.1,54.8,30.14,ESE,102,16.0,20.0,99,0.00,,---,0.01,VWS V14.01,2013-01-16 00:20:00,
2013-01-15 19:25:00,55.0,54.7,30.14,ESE,111,15.0,20.0,99,0.00,,---,0.01,VWS V14.01,2013-01-16 00:25:00,
2013-01-15 19:30:00,55.0,54.7,30.14,ESE,110,17.0,17.0,99,0.00,,---,0.01,VWS V14.01,2013-01-16 00:30:00,
2013-01-15 19:35:00,55.0,54.7,30.13,East,88,11.0,18.0,99,0.00,,---,0.01,VWS V14.01,2013-01-16 00:35:00,
2013-01-15 19:40:00,54.9,54.6,30.13,ESE,105,10.0,18.0,99,0.00,,---,0.01,VWS V14.01,2013-01-16 00:40:00,
2013-01-15 19:45:00,54.8,54.2,30.13,ESE,102,14.0,19.0,98,0.00,,---,0.01,VWS V14.01,2013-01-16 00:45:00,
2013-01-15 19:50:00,54.8,54.2,30.13,East,92,12.0,22.0,98,0.00,,---,0.01,VWS V14.01,2013-01-16 00:50:00,
2013-01-15 19:55:00,54.7,54.2,30.13,ESE,109,13.0,22.0,98,0.00,,---,0.01,VWS V14.01,2013-01-16 00:55:00,
2013-01-15 20:00:00,54.7,54.4,30.13,ESE,117,13.0,13.0,99,0.00,,---,0.01,VWS V14.01,2013-01-16 01:00:00,
2013-01-15 20:05:00,54.6,54.3,30.13,ENE,69,9.0,13.0,99,0.00,,---,0.01,VWS V14.01,2013-01-16 01:05:00,
2013-01-15 20:10:00,54.6,54.3,30.13,ENE,75,11.0,13.0,99,0.00,,---,0.01,VWS V14.01,2013-01-16 01:10:00,
2013-01-15 20:15:00,54.6,54.3,30.13,East,94,10.0,14.0,99,0.00,,---,0.01,VWS V14.01,2013-01-16 01:15:00,
2013-01-15 20:20:00,54.5,54.2,30.13,East,94,6.0,14.0,99,0.00,,---,0.01,VWS V14.01,2013-01-16 01:20:00,
2013-01-15 20:25:00,54.5,54.2,30.12,ENE,63,7.0,14.0,99,0.00,,---,0.01,VWS V14.01,2013-01-16 01:25:00,
2013-01-15 20:30:00,54.5,54.2,30.13,East,88,10.0,11.0,99,0.00,,---,0.01,VWS V14.01,2013-01-16 01:30:00,
2013-01-15 20:35:00,54.5,54.2,30.12,East,98,11.0,13.0,99,0.00,,---,0.01,VWS V14.01,2013-01-16 01:35:00,
2013-01-15 20:40:00,54.5,54.2,30.12,ESE,109,5.0,13.0,99,0.00,,---,0.01,VWS V14.01,2013-01-16 01:40:00,
2013-01-15 20:45:00,54.5,54.2,30.12,East,91,9.0,14.0,99,0.00,,---,0.01,VWS V14.01,2013-01-16 01:45:00,
2013-01-15 20:50:00,54.5,54.2,30.12,East,92,8.0,14.0,99,0.00,,---,0.01,VWS V14.01,2013-01-16 01:50:00,
2013-01-15 20:55:00,54.5,54.2,30.12,East,81,11.0,14.0,99,0.00,,---,0.01,VWS V14.01,2013-01-16 01:55:00,
2013-01-15 21:00:00,54.5,54.2,30.12,East,100,10.0,10.0,99,0.00,,---,0.01,VWS V14.01,2013-01-16 02:00:00,
2013-01-15 21:05:00,54.5,54.2,30.12,East,94,10.0,12.0,99,0.00,,---,0.01,VWS V14.01,2013-01-16 02:05:00,
2013-01-15 21:10:00,54.4,54.1,30.11,ESE,108,10.0,13.0,99,0.00,,---,0.01,VWS V14.01,2013-01-16 02:10:00,
2013-01-15 21:15:00,54.4,54.1,30.10,East,98,9.0,13.0,99,0.00,,---,0.01,VWS V14.01,2013-01-16 02:15:00,
2013-01-15 21:20:00,54.4,54.1,30.11,ESE,121,9.0,13.0,99,0.00,,---,0.01,VWS V14.01,2013-01-16 02:20:00,
2013-01-15 21:25:00,54.4,54.1,30.10,ENE,74,9.0,13.0,99,0.00,,---,0.01,VWS V14.01,2013-01-16 02:25:00,
2013-01-15 21:30:00,54.4,54.1,30.10,ESE,113,11.0,13.0,99,0.00,,---,0.01,VWS V14.01,2013-01-16 02:30:00,
2013-01-15 21:35:00,54.4,54.1,30.10,East,97,6.0,13.0,99,0.00,,---,0.01,VWS V14.01,2013-01-16 02:35:00,
2013-01-15 21:40:00,54.4,54.1,30.10,East,84,6.0,13.0,99,0.00,,---,0.01,VWS V14.01,2013-01-16 02:40:00,
2013-01-15 21:45:00,54.4,54.1,30.10,East,92,10.0,13.0,99,0.00,,---,0.01,VWS V14.01,2013-01-16 02:45:00,
2013-01-15 21:50:00,54.4,54.1,30.10,East,94,5.0,13.0,99,0.00,,---,0.01,VWS V14.01,2013-01-16 02:50:00,
2013-01-15 21:55:00,54.4,54.1,30.09,East,85,6.0,13.0,99,0.00,,---,0.01,VWS V14.01,2013-01-16 02:55:00,
2013-01-15 22:00:00,54.4,54.1,30.10,East,93,11.0,12.0,99,0.00,,---,0.01,VWS V14.01,2013-01-16 03:00:00,
2013-01-15 22:05:00,54.4,54.1,30.10,East,96,6.0,12.0,99,0.00,,---,0.01,VWS V14.01,2013-01-16 03:05:00,
2013-01-15 22:10:00,54.4,54.1,30.09,ESE,102,6.0,12.0,99,0.00,,---,0.01,VWS V14.01,2013-01-16 03:10:00,
2013-01-15 22:15:00,54.4,54.1,30.09,East,96,4.0,12.0,99,0.00,,---,0.01,VWS V14.01,2013-01-16 03:15:00,
2013-01-15 22:20:00,54.4,54.1,30.08,East,93,9.0,12.0,99,0.00,,---,0.01,VWS V14.01,2013-01-16 03:20:00,
2013-01-15 22:25:00,54.4,54.1,30.09,ESE,103,5.0,12.0,99,0.00,,---,0.01,VWS V14.01,2013-01-16 03:25:00,
2013-01-15 22:30:00,54.4,54.1,30.08,ENE,73,3.0,6.0,99,0.00,,---,0.01,VWS V14.01,2013-01-16 03:30:00,
2013-01-15 22:35:00,54.3,54.0,30.08,ENE,69,4.0,6.0,99,0.00,,---,0.01,VWS V14.01,2013-01-16 03:35:00,
2013-01-15 22:40:00,54.4,54.1,30.09,ENE,78,3.0,6.0,99,0.00,,---,0.01,VWS V14.01,2013-01-16 03:40:00,
2013-01-15 22:45:00,54.4,54.1,30.08,ESE,102,3.0,6.0,99,0.00,,---,0.01,VWS V14.01,2013-01-16 03:45:00,
2013-01-15 22:50:00,54.4,54.1,30.08,ESE,105,4.0,6.0,99,0.00,,---,0.01,VWS V14.01,2013-01-16 03:50:00,
2013-01-15 22:55:00,54.4,54.1,30.08,ESE,103,4.0,7.0,99,0.00,,---,0.01,VWS V14.01,2013-01-16 03:55:00,
2013-01-15 23:00:00,54.4,54.1,30.08,East,96,4.0,8.0,99,0.00,,---,0.01,VWS V14.01,2013-01-16 04:00:00,
2013-01-15 23:05:00,54.5,54.2,30.08,ESE,107,7.0,9.0,99,0.00,,---,0.01,VWS V14.01,2013-01-16 04:05:00,
2013-01-15 23:10:00,54.4,54.1,30.08,ESE,103,3.0,9.0,99,0.00,,---,0.01,VWS V14.01,2013-01-16 04:10:00,
2013-01-15 23:16:00,54.4,54.1,30.08,East,93,4.0,9.0,99,0.00,,---,0.01,VWS V14.01,2013-01-16 04:16:00,
2013-01-15 23:21:00,54.5,54.2,30.07,East,100,5.0,9.0,99,0.00,,---,0.01,VWS V14.01,2013-01-16 04:21:00,
2013-01-15 23:26:00,54.6,54.3,30.07,ESE,103,6.0,9.0,99,0.00,,---,0.01,VWS V14.01,2013-01-16 04:26:00,
2013-01-15 23:31:00,54.8,54.5,30.07,East,95,6.0,11.0,99,0.00,,---,0.01,VWS V14.01,2013-01-16 04:31:00,
2013-01-15 23:36:00,54.7,54.4,30.07,East,95,3.0,11.0,99,0.00,,---,0.01,VWS V14.01,2013-01-16 04:36:00,
2013-01-15 23:41:00,54.6,54.3,30.07,ESE,105,5.0,11.0,99,0.00,,---,0.01,VWS V14.01,2013-01-16 04:41:00,
2013-01-15 23:46:00,54.5,54.2,30.07,ESE,109,5.0,11.0,99,0.00,,---,0.01,VWS V14.01,2013-01-16 04:46:00,
2013-01-15 23:51:00,54.5,54.2,30.06,East,98,4.0,11.0,99,0.00,,---,0.01,VWS V14.01,2013-01-16 04:51:00,
2013-01-15 23:56:00,54.5,54.2,30.07,East,92,4.0,11.0,99,0.00,,---,0.01,VWS V14.01,2013-01-16 04:56:00,